Search for airport 
image banner adimage banner adimage banner ad
image banner ad

95CL - Verdugo Hills Hospital

Located in Glendale, United States

ICAO - 95CL, IATA -

Data provided by Airmate  

General information

Coordinates: N34°12'15" W118°13'2"
Elevation is 1430 feet MSL.
Magnetic variation is 14° East
View others Airports in California

Operational data

Special qualification required
Current time UTC:
Current local time:
Weather at : KBUR - Bob Hope ( 13 km )
METAR: KBUR 270353Z VRB06KT 10SM CLR 19/16 A2996 RMK AO2 SLP132 T01940156 $
TAF: KBUR 262342Z 2700/2724 17008KT P6SM BKN120 FM270300 14006KT P6SM BKN150 FM271000 VRB03KT P6SM SCT150 FM272000 17008KT P6SM SKC
View NOTAMs / SUP AIP / TFR affecting this airport [VIEW]
Communications frequencies: [VIEW]

Runways:

Airport contact information

Address: Glendale United States

Satellite view of 95CL